Buoy 21539

sailwx.info

Track history (hours):
 
Tides and Currents Weather Stations Pressure Air Temp Water Temp Dewpoint Dewpoint Depression Visibility Wind Speed Wind Dir Waves Ship Positions

Drifting buoy 21539

Last reported at 2016-Dec-06 18:00 UTC. Time now 2016-Dec-08 18:14 UTC.
Position N 47°18' W 124°16'.

Barometer 1020.6 mb
Water temperature 2.1 ° C

Date/timePositionNaut miles runAvg speedWind from/ knotsBaromVisibWave heightAir tempDewpointWater temp
2016-Dec-06 18:00N 47°18' W 124°16'1 1.0 1020.6 2.1
2016-Dec-06 17:00N 47°19' W 124°17'0 0.0 1019.7 -0.9
2016-Dec-06 16:00N 47°19' W 124°17'0 0.0 1018.8 -1.7
2016-Dec-06 15:00N 47°19' W 124°17'0 0.0 1018.0 -1.3
2016-Dec-06 14:00N 47°19' W 124°17'0 0.0 1017.4 -1.1
2016-Dec-06 13:00N 47°19' W 124°17'0 0.4 1017.0 -1.4
2016-Dec-06 12:00N 47°19' W 124°16'0 0.4 1016.5 -1.7
2016-Dec-06 11:00N 47°19' W 124°17'0 0.0 1016.3 -1.3
2016-Dec-06 10:00N 47°19' W 124°17'0 0.0 1016.0 -1.0
2016-Dec-06 06:00N 47°19' W 124°17'0 0.0 1015.4 -0.2
2016-Dec-06 05:00N 47°19' W 124°17'0 0.0 1015.3 -0.2
2016-Dec-06 04:00N 47°19' W 124°17'0 0.0 1015.0 0.0
2016-Dec-06 02:00N 47°19' W 124°17'0 0.0 1015.3 0.9
2016-Dec-06 01:00N 47°19' W 124°17'0 0.0 1015.7 2.8
2016-Dec-06 00:00N 47°19' W 124°17'0 0.0 1015.1 3.3
2016-Dec-05 23:00N 47°19' W 124°17'0 0.0 1015.3 3.8
2016-Dec-05 22:00N 47°19' W 124°17'0 0.0 1015.8 4.1
2016-Dec-05 21:00N 47°19' W 124°17'0 0.0 1016.4 3.3
2016-Dec-05 18:00N 47°19' W 124°17'0 0.0 1017.1 4.8
2016-Dec-05 17:00N 47°19' W 124°17'0 0.0 1017.3 1.7
2016-Dec-05 16:00N 47°19' W 124°17'0 0.0 1016.9 1.3
2016-Dec-05 15:00N 47°19' W 124°17'0 0.0 1016.8 1.2
2016-Dec-05 14:00N 47°19' W 124°17'0 0.0 1017.0 3.1
2016-Dec-05 13:00N 47°19' W 124°17'0 0.0 1017.3 5.4
2016-Dec-05 12:00N 47°19' W 124°17'0 0.0 1018.0 3.9
2016-Dec-05 11:00N 47°19' W 124°17'0 0.0 1018.5 3.9
2016-Dec-05 07:00N 47°19' W 124°17'0 0.0 1020.6 2.5
2016-Dec-05 06:00N 47°19' W 124°17'0 0.0 1020.6 1.7
2016-Dec-05 05:00N 47°19' W 124°17'0 0.0 1020.7 2.6
2016-Dec-05 04:00N 47°19' W 124°17'0 0.0 1020.9 3.6
2016-Dec-05 03:00N 47°19' W 124°17'0 0.0 1020.8 6.2
2016-Dec-05 01:00N 47°19' W 124°17'0 0.0 1020.1 6.8
2016-Dec-05 00:00N 47°19' W 124°17'0 0.0 1019.7 7.6
2016-Dec-04 23:00N 47°19' W 124°17'0 0.0 1019.6 8.6
2016-Dec-04 22:00N 47°19' W 124°17'0 0.0 1019.2 9.5
2016-Dec-04 21:00N 47°19' W 124°17'0 0.0 1019.0 9.2
2016-Dec-04 18:00N 47°19' W 124°17'0 0.0 1018.1 8.0
2016-Dec-04 17:00N 47°19' W 124°17'0 0.0 1017.6 7.1
2016-Dec-04 16:00N 47°19' W 124°17'0 0.0 1017.2 6.4
2016-Dec-04 15:00N 47°19' W 124°17'0 0.0 1017.2 6.0
2016-Dec-04 14:00N 47°19' W 124°17'0 0.0 1016.9 6.0
2016-Dec-04 13:00N 47°19' W 124°17'0 0.0 1016.9 6.8
2016-Dec-04 12:00N 47°19' W 124°17'0 0.0 1017.0 7.3
2016-Dec-04 11:00N 47°19' W 124°17'0 0.0 1017.6 7.1
2016-Dec-04 10:00N 47°19' W 124°17'0 0.0 1018.0 7.6
2016-Dec-04 07:00N 47°19' W 124°17'3 0.5 1019.5 10.0
2016-Dec-04 01:00N 47°20' W 124°21'1 0.6 1022.2 11.5
2016-Dec-04 00:00N 47°19' W 124°21'0 0.0 1022.9 11.4
2016-Dec-03 23:00N 47°19' W 124°21'2 2.0 1023.4 11.4
2016-Dec-03 22:00N 47°19' W 124°24'0 0.0 1024.2 11.4
2016-Dec-03 21:00N 47°19' W 124°24'1 1.2 1024.9 11.4
2016-Dec-03 20:00N 47°18' W 124°24'0 0.0 1025.6 11.4
2016-Dec-03 19:00N 47°18' W 124°24'0 0.4 1025.7 11.6
2016-Dec-03 18:00N 47°18' W 124°25'0 0.0 1026.0 11.8
2016-Dec-03 17:00N 47°18' W 124°25'1 0.6 1025.8 11.8
2016-Dec-03 16:00N 47°17' W 124°25'0 0.4 1025.2 11.8
2016-Dec-03 15:00N 47°17' W 124°24'0 0.0 1025.7 11.8
2016-Dec-03 14:00N 47°17' W 124°24'1 0.8 1025.1 11.8
2016-Dec-03 13:00N 47°17' W 124°25'0 0.4 1024.9 11.8
2016-Dec-03 12:00N 47°17' W 124°25'1 0.5 1024.8 11.9
2016-Dec-03 10:00N 47°17' W 124°26'1 0.2 1024.2 11.9
2016-Dec-03 06:00N 47°17' W 124°25'0 0.4 1022.5 11.8
2016-Dec-03 05:00N 47°17' W 124°25'0 0.0 1022.1 11.8
2016-Dec-03 04:00N 47°17' W 124°25'0 0.0 1021.8 11.8
2016-Dec-03 03:00N 47°17' W 124°25'0 0.0 1021.0 11.9
2016-Dec-03 02:00N 47°17' W 124°25'0 0.0 1020.7 11.9
2016-Dec-03 01:00N 47°17' W 124°25'1 1.5 1020.1 12.0
2016-Dec-03 00:00N 47°16' W 124°26'0 0.0 1019.8 12.0
2016-Dec-02 23:00N 47°16' W 124°26'0 0.0 1019.6 12.0
2016-Dec-02 22:00N 47°16' W 124°26'3 1.5 1019.3 12.0
2016-Dec-02 20:00N 47°13' W 124°27'0 0.4 1021.0 12.0
2016-Dec-02 19:00N 47°13' W 124°28'1 1.2 1021.5 12.0
2016-Dec-02 18:00N 47°11' W 124°28'1 0.7 1022.1 12.0
2016-Dec-02 17:00N 47°11' W 124°28'1 1.3 1022.6 12.0
2016-Dec-02 16:00N 47°10' W 124°29'0 0.0 1023.2 12.0
2016-Dec-02 15:00N 47°10' W 124°29'1 0.7 1023.2 12.0
2016-Dec-02 14:00N 47°09' W 124°29'0 0.0 1023.5 12.0
2016-Dec-02 13:00N 47°09' W 124°29'1 0.7 1023.7 12.0
2016-Dec-02 12:00N 47°08' W 124°29'3 3.4 1024.3 12.0
2016-Dec-02 11:00N 47°05' W 124°31'0 0.0 1025.2 12.0
2016-Dec-02 10:00N 47°05' W 124°31'0 0.0 1025.5 12.0
2016-Dec-02 09:00N 47°05' W 124°31'0 0.0 1025.4 12.0
2016-Dec-02 08:00N 47°05' W 124°31'1 0.4 1025.4 12.0
2016-Dec-02 06:00N 47°06' W 124°31'1 0.5 1025.6 12.0
2016-Dec-02 03:00N 47°05' W 124°32'1 0.7 1025.6 12.0
2016-Dec-02 02:00N 47°04' W 124°31'0 0.4 1025.8 12.0
2016-Dec-02 01:00N 47°04' W 124°32'1 0.7 1025.7 12.0
2016-Dec-02 00:00N 47°05' W 124°31'1 0.7 1025.2 12.0
2016-Dec-01 23:00N 47°04' W 124°31'1 1.0 1025.1 12.1
2016-Dec-01 22:00N 47°04' W 124°32'1 0.6 1024.6 12.0
2016-Dec-01 21:00N 47°03' W 124°32'0 0.0 1024.8 12.1
2016-Dec-01 20:00N 47°03' W 124°32'1 0.6 1024.9 12.1
2016-Dec-01 19:00N 47°04' W 124°32'0 0.4 1025.0 12.1
2016-Dec-01 18:00N 47°04' W 124°32'0 0.0 1024.9 12.1
2016-Dec-01 17:00N 47°04' W 124°32'0 0.4 1024.3 12.3
2016-Dec-01 16:00N 47°04' W 124°33'0 0.4 1024.1 12.3
2016-Dec-01 15:00N 47°04' W 124°34'0 0.0 1023.8 12.3
2016-Dec-01 14:00N 47°04' W 124°34'0 0.0 1023.7 12.4
2016-Dec-01 13:00N 47°04' W 124°34'1 0.7 1023.4 12.4
2016-Dec-01 12:00N 47°04' W 124°34'0 0.4 1023.3 12.5
2016-Dec-01 11:00N 47°04' W 124°34'0 0.0 1023.5 12.5
2016-Dec-01 10:00N 47°04' W 124°34'3 0.6 1023.1 12.7
2016-Dec-01 05:00N 47°07' W 124°36'2 1.7 1021.7 13.3
2016-Dec-01 04:00N 47°07' W 124°38'1 0.6 1021.4 13.3
2016-Dec-01 03:00N 47°08' W 124°38'1 1.3 1020.9 13.3
2016-Dec-01 02:00N 47°09' W 124°39'0 0.0 1020.6 13.4
2016-Dec-01 01:00N 47°09' W 124°39'1 1.3 1020.1 13.4
2016-Dec-01 00:00N 47°10' W 124°40'0 0.4 1019.6 13.4
2016-Nov-30 23:00N 47°10' W 124°40'2 1.8 1018.9 13.4
2016-Nov-30 22:00N 47°12' W 124°41'1 0.7 1018.3 13.4
2016-Nov-30 21:00N 47°11' W 124°41'2 2.4 1017.7 13.5
2016-Nov-30 20:00N 47°13' W 124°44'0 0.0 1017.6 13.5
2016-Nov-30 19:00N 47°13' W 124°44'0 0.0 1017.3 13.5
2016-Nov-30 18:00N 47°13' W 124°44'2 1.7 1016.6 13.5
2016-Nov-30 17:00N 47°13' W 124°47'2 2.0 1015.5 13.5
2016-Nov-30 16:00N 47°13' W 124°50'0 0.0 1014.6 13.4
2016-Nov-30 15:00N 47°13' W 124°50'0 0.4 1013.7 13.4
2016-Nov-30 14:00N 47°13' W 124°50'1 0.8 1012.7 13.4
2016-Nov-30 13:00N 47°13' W 124°52'1 1.0 1011.8 13.5
2016-Nov-30 12:00N 47°13' W 124°53'0 0.0 1010.9 13.4
2016-Nov-30 11:00N 47°13' W 124°53'2 2.2 1010.7 13.4
2016-Nov-30 10:00N 47°11' W 124°55'0 0.0 1009.9 13.4
2016-Nov-30 09:00N 47°11' W 124°55'4 1.2 1009.3 13.4
2016-Nov-30 06:00N 47°08' W 124°59'1 1.3 1006.9 13.2
2016-Nov-30 05:00N 47°07' W 124°59'1 1.3 1007.3 13.2
2016-Nov-30 04:00N 47°06' W 125°00'3 3.0 1008.8 13.3
2016-Nov-30 03:00N 47°03' W 124°59'0 0.0 1010.1 13.3
2016-Nov-30 02:00N 47°03' W 124°59'0 0.0 1011.0 13.3
2016-Nov-30 01:00N 47°03' W 124°59'3 2.5 1012.4 13.3
2016-Nov-30 00:00N 47°01' W 124°58'0 0.0 1013.6 13.3
2016-Nov-29 23:00N 47°01' W 124°58'2 1.8 1014.7 13.3
2016-Nov-29 22:00N 46°59' W 124°58'2 1.8 1015.9 13.2
2016-Nov-29 21:00N 46°57' W 124°57'0 0.0 1017.1 13.2
2016-Nov-29 20:00N 46°57' W 124°57'1 0.6 1018.5 13.2
2016-Nov-29 19:00N 46°56' W 124°57'2 1.8 1019.3 13.2
2016-Nov-29 18:00N 46°55' W 124°58'1 1.3 1020.2 13.2
2016-Nov-29 17:00N 46°53' W 124°57'0 0.0 1020.2 13.2
2016-Nov-29 16:00N 46°53' W 124°57'1 0.6 1020.3 13.2
2016-Nov-29 15:00N 46°53' W 124°57'1 0.6 1020.2 13.2
2016-Nov-29 14:00N 46°52' W 124°57'0 0.0 1020.1 13.2
2016-Nov-29 13:00N 46°52' W 124°57'1 0.7 1020.6 13.2
2016-Nov-29 12:00N 46°52' W 124°56'1 0.7 1021.0 13.2
2016-Nov-29 11:00N 46°52' W 124°57'0 0.0 1020.9 13.2
2016-Nov-29 10:00N 46°52' W 124°57'2 2.4 1021.2 13.2
2016-Nov-29 09:00N 46°50' W 124°59'1 0.2 1020.7 13.2
2016-Nov-29 04:00N 46°50' W 125°01'1 0.4 1019.7 12.8
2016-Nov-29 02:00N 46°50' W 125°01'0 0.4 1018.7 12.5
2016-Nov-29 01:00N 46°50' W 125°02'0 0.0 1018.5 12.5
2016-Nov-29 00:00N 46°50' W 125°02'0 0.0 1017.8 12.7
2016-Nov-28 23:00N 46°50' W 125°02'2 1.8 1017.1 12.8
2016-Nov-28 22:00N 46°52' W 125°01'0 0.0 1016.5 12.8
2016-Nov-28 21:00N 46°52' W 125°01'2 1.7 1016.0 12.9
2016-Nov-28 20:00N 46°51' W 125°04'1 1.2 1015.7 12.8
2016-Nov-28 19:00N 46°51' W 125°05'0 0.0 1015.3 12.8
2016-Nov-28 18:00N 46°51' W 125°05'1 0.7 1014.6 12.7
2016-Nov-28 17:00N 46°52' W 125°06'0 0.4 1013.7 12.4
2016-Nov-28 16:00N 46°52' W 125°05'2 1.6 1012.7 12.3
2016-Nov-28 15:00N 46°52' W 125°08'1 0.7 1011.8 12.3
2016-Nov-28 14:00N 46°52' W 125°08'0 0.4 1010.7 12.3
2016-Nov-28 13:00N 46°52' W 125°09'0 0.0 1010.2 12.3
2016-Nov-28 12:00N 46°52' W 125°09'1 1.2 1009.3 12.3
2016-Nov-28 11:00N 46°52' W 125°11'2 2.1 1008.5 12.3
2016-Nov-28 10:00N 46°53' W 125°14'0 0.0 1007.8 12.3
2016-Nov-28 09:00N 46°53' W 125°14'0 0.0 1007.3 12.3
2016-Nov-28 06:00N 46°53' W 125°14'0 0.4 1005.1 12.3
2016-Nov-28 05:00N 46°53' W 125°14'1 0.7 1003.8 12.3
2016-Nov-28 04:00N 46°53' W 125°15'0 0.0 1003.4 12.3
2016-Nov-28 03:00N 46°53' W 125°15'1 1.3 1002.8 12.4
2016-Nov-28 02:00N 46°55' W 125°16'2 2.0 1002.2 12.4
2016-Nov-28 01:00N 46°56' W 125°18'0 0.4 1001.6 12.4
2016-Nov-28 00:00N 46°56' W 125°19'1 0.8 1001.1 12.4
2016-Nov-27 23:00N 46°56' W 125°20'2 1.0 1000.6 12.5
2016-Nov-27 21:00N 46°55' W 125°22'4 3.7 1004.8 12.5
2016-Nov-27 20:00N 46°52' W 125°26'0 0.0 1006.0 12.5
2016-Nov-27 19:00N 46°52' W 125°26'0 0.0 1007.3 12.5
2016-Nov-27 18:00N 46°52' W 125°26'1 1.5 1007.8 12.5
2016-Nov-27 17:00N 46°51' W 125°28'1 0.6 1008.4 12.5
2016-Nov-27 16:00N 46°50' W 125°28'1 0.8 1007.8 12.5
2016-Nov-27 15:00N 46°50' W 125°29'1 0.6 1007.8 12.5
2016-Nov-27 14:00N 46°50' W 125°29'0 0.4 1008.4 12.5
2016-Nov-27 13:00N 46°50' W 125°29'0 0.0 1006.7 12.5
2016-Nov-27 12:00N 46°50' W 125°29'0 0.0 1006.8 12.5
2016-Nov-27 11:00N 46°50' W 125°29'0 0.0 1006.4 12.5
2016-Nov-27 10:00N 46°50' W 125°29'1 1.3 1005.7 12.5
2016-Nov-27 09:00N 46°51' W 125°30'1 0.2 1004.7 12.4
2016-Nov-27 06:00N 46°52' W 125°30'1 0.4 1002.1 12.5
2016-Nov-27 04:00N 46°52' W 125°31'2 0.9 999.9 12.5
2016-Nov-27 02:00N 46°53' W 125°33'0 0.4 998.9 12.5
2016-Nov-27 01:00N 46°53' W 125°34'1 0.6 998.5 12.5
2016-Nov-27 00:00N 46°53' W 125°34'1 0.5 998.2 12.5
2016-Nov-26 22:00N 46°53' W 125°35'0 0.4 997.7 12.5
2016-Nov-26 21:00N 46°53' W 125°34'1 1.0 997.9 12.5
2016-Nov-26 20:00N 46°52' W 125°33'0 0.0 998.2 12.6
2016-Nov-26 19:00N 46°52' W 125°33'1 0.7 999.0 12.6
2016-Nov-26 18:00N 46°53' W 125°32'   999.0 12.6
Track history (hours):
 
Tides and Currents Weather Stations Pressure Air Temp Water Temp Dewpoint Dewpoint Depression Visibility Wind Speed Wind Dir Waves Ship Positions

Drifting buoy 21539

Last reported at 2016-Dec-06 18:00 UTC. Time now 2016-Dec-08 18:14 UTC.
Position N 47°18' W 124°16'.

Barometer 1020.6 mb
Water temperature 2.1 ° C

Date/timePositionNaut miles runAvg speedWind from/ knotsBaromVisibWave heightAir tempDewpointWater temp
2016-Dec-06 18:00N 47°18' W 124°16'1 1.0 1020.6 2.1
2016-Dec-06 17:00N 47°19' W 124°17'0 0.0 1019.7 -0.9
2016-Dec-06 16:00N 47°19' W 124°17'0 0.0 1018.8 -1.7
2016-Dec-06 15:00N 47°19' W 124°17'0 0.0 1018.0 -1.3
2016-Dec-06 14:00N 47°19' W 124°17'0 0.0 1017.4 -1.1
2016-Dec-06 13:00N 47°19' W 124°17'0 0.4 1017.0 -1.4
2016-Dec-06 12:00N 47°19' W 124°16'0 0.4 1016.5 -1.7
2016-Dec-06 11:00N 47°19' W 124°17'0 0.0 1016.3 -1.3
2016-Dec-06 10:00N 47°19' W 124°17'0 0.0 1016.0 -1.0
2016-Dec-06 06:00N 47°19' W 124°17'0 0.0 1015.4 -0.2
2016-Dec-06 05:00N 47°19' W 124°17'0 0.0 1015.3 -0.2
2016-Dec-06 04:00N 47°19' W 124°17'0 0.0 1015.0 0.0
2016-Dec-06 02:00N 47°19' W 124°17'0 0.0 1015.3 0.9
2016-Dec-06 01:00N 47°19' W 124°17'0 0.0 1015.7 2.8
2016-Dec-06 00:00N 47°19' W 124°17'0 0.0 1015.1 3.3
2016-Dec-05 23:00N 47°19' W 124°17'0 0.0 1015.3 3.8
2016-Dec-05 22:00N 47°19' W 124°17'0 0.0 1015.8 4.1
2016-Dec-05 21:00N 47°19' W 124°17'0 0.0 1016.4 3.3
2016-Dec-05 18:00N 47°19' W 124°17'0 0.0 1017.1 4.8
2016-Dec-05 17:00N 47°19' W 124°17'0 0.0 1017.3 1.7
2016-Dec-05 16:00N 47°19' W 124°17'0 0.0 1016.9 1.3
2016-Dec-05 15:00N 47°19' W 124°17'0 0.0 1016.8 1.2
2016-Dec-05 14:00N 47°19' W 124°17'0 0.0 1017.0 3.1
2016-Dec-05 13:00N 47°19' W 124°17'0 0.0 1017.3 5.4
2016-Dec-05 12:00N 47°19' W 124°17'0 0.0 1018.0 3.9
2016-Dec-05 11:00N 47°19' W 124°17'0 0.0 1018.5 3.9
2016-Dec-05 07:00N 47°19' W 124°17'0 0.0 1020.6 2.5
2016-Dec-05 06:00N 47°19' W 124°17'0 0.0 1020.6 1.7
2016-Dec-05 05:00N 47°19' W 124°17'0 0.0 1020.7 2.6
2016-Dec-05 04:00N 47°19' W 124°17'0 0.0 1020.9 3.6
2016-Dec-05 03:00N 47°19' W 124°17'0 0.0 1020.8 6.2
2016-Dec-05 01:00N 47°19' W 124°17'0 0.0 1020.1 6.8
2016-Dec-05 00:00N 47°19' W 124°17'0 0.0 1019.7 7.6
2016-Dec-04 23:00N 47°19' W 124°17'0 0.0 1019.6 8.6
2016-Dec-04 22:00N 47°19' W 124°17'0 0.0 1019.2 9.5
2016-Dec-04 21:00N 47°19' W 124°17'0 0.0 1019.0 9.2
2016-Dec-04 18:00N 47°19' W 124°17'0 0.0 1018.1 8.0
2016-Dec-04 17:00N 47°19' W 124°17'0 0.0 1017.6 7.1
2016-Dec-04 16:00N 47°19' W 124°17'0 0.0 1017.2 6.4
2016-Dec-04 15:00N 47°19' W 124°17'0 0.0 1017.2 6.0
2016-Dec-04 14:00N 47°19' W 124°17'0 0.0 1016.9 6.0
2016-Dec-04 13:00N 47°19' W 124°17'0 0.0 1016.9 6.8
2016-Dec-04 12:00N 47°19' W 124°17'0 0.0 1017.0 7.3
2016-Dec-04 11:00N 47°19' W 124°17'0 0.0 1017.6 7.1
2016-Dec-04 10:00N 47°19' W 124°17'0 0.0 1018.0 7.6
2016-Dec-04 07:00N 47°19' W 124°17'3 0.5 1019.5 10.0
2016-Dec-04 01:00N 47°20' W 124°21'1 0.6 1022.2 11.5
2016-Dec-04 00:00N 47°19' W 124°21'0 0.0 1022.9 11.4
2016-Dec-03 23:00N 47°19' W 124°21'2 2.0 1023.4 11.4
2016-Dec-03 22:00N 47°19' W 124°24'0 0.0 1024.2 11.4
2016-Dec-03 21:00N 47°19' W 124°24'1 1.2 1024.9 11.4
2016-Dec-03 20:00N 47°18' W 124°24'0 0.0 1025.6 11.4
2016-Dec-03 19:00N 47°18' W 124°24'0 0.4 1025.7 11.6
2016-Dec-03 18:00N 47°18' W 124°25'0 0.0 1026.0 11.8
2016-Dec-03 17:00N 47°18' W 124°25'1 0.6 1025.8 11.8
2016-Dec-03 16:00N 47°17' W 124°25'0 0.4 1025.2 11.8
2016-Dec-03 15:00N 47°17' W 124°24'0 0.0 1025.7 11.8
2016-Dec-03 14:00N 47°17' W 124°24'1 0.8 1025.1 11.8
2016-Dec-03 13:00N 47°17' W 124°25'0 0.4 1024.9 11.8
2016-Dec-03 12:00N 47°17' W 124°25'1 0.5 1024.8 11.9
2016-Dec-03 10:00N 47°17' W 124°26'1 0.2 1024.2 11.9
2016-Dec-03 06:00N 47°17' W 124°25'0 0.4 1022.5 11.8
2016-Dec-03 05:00N 47°17' W 124°25'0 0.0 1022.1 11.8
2016-Dec-03 04:00N 47°17' W 124°25'0 0.0 1021.8 11.8
2016-Dec-03 03:00N 47°17' W 124°25'0 0.0 1021.0 11.9
2016-Dec-03 02:00N 47°17' W 124°25'0 0.0 1020.7 11.9
2016-Dec-03 01:00N 47°17' W 124°25'1 1.5 1020.1 12.0
2016-Dec-03 00:00N 47°16' W 124°26'0 0.0 1019.8 12.0
2016-Dec-02 23:00N 47°16' W 124°26'0 0.0 1019.6 12.0
2016-Dec-02 22:00N 47°16' W 124°26'3 1.5 1019.3 12.0
2016-Dec-02 20:00N 47°13' W 124°27'0 0.4 1021.0 12.0
2016-Dec-02 19:00N 47°13' W 124°28'1 1.2 1021.5 12.0
2016-Dec-02 18:00N 47°11' W 124°28'1 0.7 1022.1 12.0
2016-Dec-02 17:00N 47°11' W 124°28'1 1.3 1022.6 12.0
2016-Dec-02 16:00N 47°10' W 124°29'0 0.0 1023.2 12.0
2016-Dec-02 15:00N 47°10' W 124°29'1 0.7 1023.2 12.0
2016-Dec-02 14:00N 47°09' W 124°29'0 0.0 1023.5 12.0
2016-Dec-02 13:00N 47°09' W 124°29'1 0.7 1023.7 12.0
2016-Dec-02 12:00N 47°08' W 124°29'3 3.4 1024.3 12.0
2016-Dec-02 11:00N 47°05' W 124°31'0 0.0 1025.2 12.0
2016-Dec-02 10:00N 47°05' W 124°31'0 0.0 1025.5 12.0
2016-Dec-02 09:00N 47°05' W 124°31'0 0.0 1025.4 12.0
2016-Dec-02 08:00N 47°05' W 124°31'1 0.4 1025.4 12.0
2016-Dec-02 06:00N 47°06' W 124°31'1 0.5 1025.6 12.0
2016-Dec-02 03:00N 47°05' W 124°32'1 0.7 1025.6 12.0
2016-Dec-02 02:00N 47°04' W 124°31'0 0.4 1025.8 12.0
2016-Dec-02 01:00N 47°04' W 124°32'1 0.7 1025.7 12.0
2016-Dec-02 00:00N 47°05' W 124°31'1 0.7 1025.2 12.0
2016-Dec-01 23:00N 47°04' W 124°31'1 1.0 1025.1 12.1
2016-Dec-01 22:00N 47°04' W 124°32'1 0.6 1024.6 12.0
2016-Dec-01 21:00N 47°03' W 124°32'0 0.0 1024.8 12.1
2016-Dec-01 20:00N 47°03' W 124°32'1 0.6 1024.9 12.1
2016-Dec-01 19:00N 47°04' W 124°32'0 0.4 1025.0 12.1
2016-Dec-01 18:00N 47°04' W 124°32'0 0.0 1024.9 12.1
2016-Dec-01 17:00N 47°04' W 124°32'0 0.4 1024.3 12.3
2016-Dec-01 16:00N 47°04' W 124°33'0 0.4 1024.1 12.3
2016-Dec-01 15:00N 47°04' W 124°34'0 0.0 1023.8 12.3
2016-Dec-01 14:00N 47°04' W 124°34'0 0.0 1023.7 12.4
2016-Dec-01 13:00N 47°04' W 124°34'1 0.7 1023.4 12.4
2016-Dec-01 12:00N 47°04' W 124°34'0 0.4 1023.3 12.5
2016-Dec-01 11:00N 47°04' W 124°34'0 0.0 1023.5 12.5
2016-Dec-01 10:00N 47°04' W 124°34'3 0.6 1023.1 12.7
2016-Dec-01 05:00N 47°07' W 124°36'2 1.7 1021.7 13.3
2016-Dec-01 04:00N 47°07' W 124°38'1 0.6 1021.4 13.3
2016-Dec-01 03:00N 47°08' W 124°38'1 1.3 1020.9 13.3
2016-Dec-01 02:00N 47°09' W 124°39'0 0.0 1020.6 13.4
2016-Dec-01 01:00N 47°09' W 124°39'1 1.3 1020.1 13.4
2016-Dec-01 00:00N 47°10' W 124°40'0 0.4 1019.6 13.4
2016-Nov-30 23:00N 47°10' W 124°40'2 1.8 1018.9 13.4
2016-Nov-30 22:00N 47°12' W 124°41'1 0.7 1018.3 13.4
2016-Nov-30 21:00N 47°11' W 124°41'2 2.4 1017.7 13.5
2016-Nov-30 20:00N 47°13' W 124°44'0 0.0 1017.6 13.5
2016-Nov-30 19:00N 47°13' W 124°44'0 0.0 1017.3 13.5
2016-Nov-30 18:00N 47°13' W 124°44'2 1.7 1016.6 13.5
2016-Nov-30 17:00N 47°13' W 124°47'2 2.0 1015.5 13.5
2016-Nov-30 16:00N 47°13' W 124°50'0 0.0 1014.6 13.4
2016-Nov-30 15:00N 47°13' W 124°50'0 0.4 1013.7 13.4
2016-Nov-30 14:00N 47°13' W 124°50'1 0.8 1012.7 13.4
2016-Nov-30 13:00N 47°13' W 124°52'1 1.0 1011.8 13.5
2016-Nov-30 12:00N 47°13' W 124°53'0 0.0 1010.9 13.4
2016-Nov-30 11:00N 47°13' W 124°53'2 2.2 1010.7 13.4
2016-Nov-30 10:00N 47°11' W 124°55'0 0.0 1009.9 13.4
2016-Nov-30 09:00N 47°11' W 124°55'4 1.2 1009.3 13.4
2016-Nov-30 06:00N 47°08' W 124°59'1 1.3 1006.9 13.2
2016-Nov-30 05:00N 47°07' W 124°59'1 1.3 1007.3 13.2
2016-Nov-30 04:00N 47°06' W 125°00'3 3.0 1008.8 13.3
2016-Nov-30 03:00N 47°03' W 124°59'0 0.0 1010.1 13.3
2016-Nov-30 02:00N 47°03' W 124°59'0 0.0 1011.0 13.3
2016-Nov-30 01:00N 47°03' W 124°59'3 2.5 1012.4 13.3
2016-Nov-30 00:00N 47°01' W 124°58'0 0.0 1013.6 13.3
2016-Nov-29 23:00N 47°01' W 124°58'2 1.8 1014.7 13.3
2016-Nov-29 22:00N 46°59' W 124°58'2 1.8 1015.9 13.2
2016-Nov-29 21:00N 46°57' W 124°57'0 0.0 1017.1 13.2
2016-Nov-29 20:00N 46°57' W 124°57'1 0.6 1018.5 13.2
2016-Nov-29 19:00N 46°56' W 124°57'2 1.8 1019.3 13.2
2016-Nov-29 18:00N 46°55' W 124°58'1 1.3 1020.2 13.2
2016-Nov-29 17:00N 46°53' W 124°57'0 0.0 1020.2 13.2
2016-Nov-29 16:00N 46°53' W 124°57'1 0.6 1020.3 13.2
2016-Nov-29 15:00N 46°53' W 124°57'1 0.6 1020.2 13.2
2016-Nov-29 14:00N 46°52' W 124°57'0 0.0 1020.1 13.2
2016-Nov-29 13:00N 46°52' W 124°57'1 0.7 1020.6 13.2
2016-Nov-29 12:00N 46°52' W 124°56'1 0.7 1021.0 13.2
2016-Nov-29 11:00N 46°52' W 124°57'0 0.0 1020.9 13.2
2016-Nov-29 10:00N 46°52' W 124°57'2 2.4 1021.2 13.2
2016-Nov-29 09:00N 46°50' W 124°59'1 0.2 1020.7 13.2
2016-Nov-29 04:00N 46°50' W 125°01'1 0.4 1019.7 12.8
2016-Nov-29 02:00N 46°50' W 125°01'0 0.4 1018.7 12.5
2016-Nov-29 01:00N 46°50' W 125°02'0 0.0 1018.5 12.5
2016-Nov-29 00:00N 46°50' W 125°02'0 0.0 1017.8 12.7
2016-Nov-28 23:00N 46°50' W 125°02'2 1.8 1017.1 12.8
2016-Nov-28 22:00N 46°52' W 125°01'0 0.0 1016.5 12.8
2016-Nov-28 21:00N 46°52' W 125°01'2 1.7 1016.0 12.9
2016-Nov-28 20:00N 46°51' W 125°04'1 1.2 1015.7 12.8
2016-Nov-28 19:00N 46°51' W 125°05'0 0.0 1015.3 12.8
2016-Nov-28 18:00N 46°51' W 125°05'1 0.7 1014.6 12.7
2016-Nov-28 17:00N 46°52' W 125°06'0 0.4 1013.7 12.4
2016-Nov-28 16:00N 46°52' W 125°05'2 1.6 1012.7 12.3
2016-Nov-28 15:00N 46°52' W 125°08'1 0.7 1011.8 12.3
2016-Nov-28 14:00N 46°52' W 125°08'0 0.4 1010.7 12.3
2016-Nov-28 13:00N 46°52' W 125°09'0 0.0 1010.2 12.3
2016-Nov-28 12:00N 46°52' W 125°09'1 1.2 1009.3 12.3
2016-Nov-28 11:00N 46°52' W 125°11'2 2.1 1008.5 12.3
2016-Nov-28 10:00N 46°53' W 125°14'0 0.0 1007.8 12.3
2016-Nov-28 09:00N 46°53' W 125°14'0 0.0 1007.3 12.3
2016-Nov-28 06:00N 46°53' W 125°14'0 0.4 1005.1 12.3
2016-Nov-28 05:00N 46°53' W 125°14'1 0.7 1003.8 12.3
2016-Nov-28 04:00N 46°53' W 125°15'0 0.0 1003.4 12.3
2016-Nov-28 03:00N 46°53' W 125°15'1 1.3 1002.8 12.4
2016-Nov-28 02:00N 46°55' W 125°16'2 2.0 1002.2 12.4
2016-Nov-28 01:00N 46°56' W 125°18'0 0.4 1001.6 12.4
2016-Nov-28 00:00N 46°56' W 125°19'1 0.8 1001.1 12.4
2016-Nov-27 23:00N 46°56' W 125°20'2 1.0 1000.6 12.5
2016-Nov-27 21:00N 46°55' W 125°22'4 3.7 1004.8 12.5
2016-Nov-27 20:00N 46°52' W 125°26'0 0.0 1006.0 12.5
2016-Nov-27 19:00N 46°52' W 125°26'0 0.0 1007.3 12.5
2016-Nov-27 18:00N 46°52' W 125°26'1 1.5 1007.8 12.5
2016-Nov-27 17:00N 46°51' W 125°28'1 0.6 1008.4 12.5
2016-Nov-27 16:00N 46°50' W 125°28'1 0.8 1007.8 12.5
2016-Nov-27 15:00N 46°50' W 125°29'1 0.6 1007.8 12.5
2016-Nov-27 14:00N 46°50' W 125°29'0 0.4 1008.4 12.5
2016-Nov-27 13:00N 46°50' W 125°29'0 0.0 1006.7 12.5
2016-Nov-27 12:00N 46°50' W 125°29'0 0.0 1006.8 12.5
2016-Nov-27 11:00N 46°50' W 125°29'0 0.0 1006.4 12.5
2016-Nov-27 10:00N 46°50' W 125°29'1 1.3 1005.7 12.5
2016-Nov-27 09:00N 46°51' W 125°30'1 0.2 1004.7 12.4
2016-Nov-27 06:00N 46°52' W 125°30'1 0.4 1002.1 12.5
2016-Nov-27 04:00N 46°52' W 125°31'2 0.9 999.9 12.5
2016-Nov-27 02:00N 46°53' W 125°33'0 0.4 998.9 12.5
2016-Nov-27 01:00N 46°53' W 125°34'1 0.6 998.5 12.5
2016-Nov-27 00:00N 46°53' W 125°34'1 0.5 998.2 12.5
2016-Nov-26 22:00N 46°53' W 125°35'0 0.4 997.7 12.5
2016-Nov-26 21:00N 46°53' W 125°34'1 1.0 997.9 12.5
2016-Nov-26 20:00N 46°52' W 125°33'0 0.0 998.2 12.6
2016-Nov-26 19:00N 46°52' W 125°33'1 0.7 999.0 12.6
2016-Nov-26 18:00N 46°53' W 125°32'   999.0 12.6

Dump ship's entire track history